Time,TemperatureF,DewpointF,PressureIn,WindDirection,WindDirectionDegrees,WindSpeedMPH,WindSpeedGustMPH,Humidity,HourlyPrecipIn,Conditions,Clouds,dailyrainin,SoftwareType,DateUTC
2013-03-09 00:14:00,33.0,24.0,30.43,ENE,68,0.0,0.0,70,0.00,,,0.00,weatherlink.com 1.10,2013-03-09 05:14:00,
2013-03-09 00:29:00,31.7,24.0,30.42,ENE,68,0.0,0.0,72,0.00,,,0.00,weatherlink.com 1.10,2013-03-09 05:29:00,
2013-03-09 00:44:00,31.8,24.0,30.42,ENE,69,0.0,0.0,72,0.00,,,0.00,weatherlink.com 1.10,2013-03-09 05:44:00,
2013-03-09 00:59:00,30.9,24.0,30.42,ENE,69,0.0,0.0,75,0.00,,,0.00,weatherlink.com 1.10,2013-03-09 05:59:00,
2013-03-09 01:14:00,30.5,24.0,30.42,ENE,69,0.0,0.0,76,0.00,,,0.00,weatherlink.com 1.10,2013-03-09 06:14:00,
2013-03-09 01:29:00,30.0,24.0,30.42,ENE,69,0.0,0.0,77,0.00,,,0.00,weatherlink.com 1.10,2013-03-09 06:29:00,
2013-03-09 01:44:00,30.4,24.0,30.42,ENE,69,0.0,0.0,78,0.00,,,0.00,weatherlink.com 1.10,2013-03-09 06:44:00,
2013-03-09 01:59:00,30.1,24.0,30.41,ENE,69,0.0,0.0,77,0.00,,,0.00,weatherlink.com 1.10,2013-03-09 06:59:00,
2013-03-09 02:14:00,29.5,24.0,30.41,ENE,70,0.0,0.0,79,0.00,,,0.00,weatherlink.com 1.10,2013-03-09 07:14:00,
2013-03-09 02:30:00,29.4,24.0,30.40,ENE,70,0.0,0.0,79,0.00,,,0.00,weatherlink.com 1.10,2013-03-09 07:30:00,
2013-03-09 02:45:00,29.0,24.0,30.40,ENE,70,0.0,0.0,81,0.00,,,0.00,weatherlink.com 1.10,2013-03-09 07:45:00,
2013-03-09 03:00:00,28.7,24.0,30.39,ENE,70,0.0,0.0,82,0.00,,,0.00,weatherlink.com 1.10,2013-03-09 08:00:00,
2013-03-09 03:15:00,28.7,24.0,30.39,ENE,69,0.0,0.0,83,0.00,,,0.00,weatherlink.com 1.10,2013-03-09 08:15:00,
2013-03-09 03:30:00,29.3,24.0,30.39,ENE,68,0.0,0.0,82,0.00,,,0.00,weatherlink.com 1.10,2013-03-09 08:30:00,
2013-03-09 03:45:00,30.4,24.0,30.39,ENE,68,0.0,0.0,78,0.00,,,0.00,weatherlink.com 1.10,2013-03-09 08:45:00,
2013-03-09 04:00:00,30.0,25.0,30.39,SSE,165,0.0,0.0,80,0.00,,,0.00,weatherlink.com 1.10,2013-03-09 09:00:00,
2013-03-09 04:15:00,29.7,25.0,30.38,SSE,165,0.0,0.0,82,0.00,,,0.00,weatherlink.com 1.10,2013-03-09 09:15:00,
2013-03-09 04:30:00,29.0,24.0,30.39,SSE,165,0.0,0.0,82,0.00,,,0.00,weatherlink.com 1.10,2013-03-09 09:30:00,
2013-03-09 04:45:00,28.5,24.0,30.39,SSE,165,0.0,0.0,84,0.00,,,0.00,weatherlink.com 1.10,2013-03-09 09:45:00,
2013-03-09 05:00:00,28.4,24.0,30.39,SSE,165,0.0,0.0,83,0.00,,,0.00,weatherlink.com 1.10,2013-03-09 10:00:00,
2013-03-09 05:15:00,30.2,25.0,30.39,SSE,163,0.0,0.0,80,0.00,,,0.00,weatherlink.com 1.10,2013-03-09 10:15:00,
2013-03-09 05:30:00,31.6,24.0,30.40,SW,236,0.0,0.0,74,0.00,,,0.00,weatherlink.com 1.10,2013-03-09 10:30:00,
2013-03-09 05:45:00,32.7,26.0,30.40,SW,229,0.0,0.0,75,0.00,,,0.00,weatherlink.com 1.10,2013-03-09 10:45:00,
2013-03-09 06:00:00,32.0,26.0,30.41,East,82,0.0,0.0,77,0.00,,,0.00,weatherlink.com 1.10,2013-03-09 11:00:00,
2013-03-09 06:15:00,30.9,25.0,30.41,East,94,0.0,0.0,80,0.00,,,0.00,weatherlink.com 1.10,2013-03-09 11:15:00,
2013-03-09 06:30:00,30.9,25.0,30.42,East,94,0.0,0.0,79,0.00,,,0.00,weatherlink.com 1.10,2013-03-09 11:30:00,
2013-03-09 06:45:00,31.7,25.0,30.42,East,91,0.0,0.0,77,0.00,,,0.00,weatherlink.com 1.10,2013-03-09 11:45:00,
2013-03-09 07:00:00,31.5,25.0,30.43,East,91,0.0,0.0,78,0.00,,,0.00,weatherlink.com 1.10,2013-03-09 12:00:00,
2013-03-09 07:15:00,32.0,27.0,30.43,East,94,0.0,0.0,80,0.00,,,0.00,weatherlink.com 1.10,2013-03-09 12:15:00,
2013-03-09 07:30:00,33.0,27.0,30.43,East,87,0.0,0.0,79,0.00,,,0.00,weatherlink.com 1.10,2013-03-09 12:30:00,
2013-03-09 07:45:00,33.3,28.0,30.43,East,87,0.0,0.0,81,0.00,,,0.00,weatherlink.com 1.10,2013-03-09 12:45:00,
2013-03-09 08:00:00,34.8,26.0,30.44,East,89,0.0,0.0,71,0.00,,,0.00,weatherlink.com 1.10,2013-03-09 13:00:00,
2013-03-09 08:15:00,36.0,30.0,30.44,ESE,104,0.0,0.0,79,0.00,,,0.00,weatherlink.com 1.10,2013-03-09 13:15:00,
2013-03-09 08:30:00,38.6,32.0,30.44,East,89,0.0,0.0,77,0.00,,,0.00,weatherlink.com 1.10,2013-03-09 13:30:00,
2013-03-09 08:45:00,40.9,28.0,30.44,ENE,76,0.0,0.0,61,0.00,,,0.00,weatherlink.com 1.10,2013-03-09 13:45:00,
2013-03-09 09:00:00,41.2,29.0,30.44,ENE,60,0.0,1.0,62,0.00,,,0.00,weatherlink.com 1.10,2013-03-09 14:00:00,
2013-03-09 09:15:00,42.4,29.0,30.44,NE,51,0.0,0.0,59,0.00,,,0.00,weatherlink.com 1.10,2013-03-09 14:15:00,
2013-03-09 09:30:00,44.8,30.0,30.44,ENE,74,0.0,0.0,57,0.00,,,0.00,weatherlink.com 1.10,2013-03-09 14:30:00,
2013-03-09 09:45:00,47.4,30.0,30.43,East,81,0.0,0.0,51,0.01,,,0.01,weatherlink.com 1.10,2013-03-09 14:45:00,
2013-03-09 10:01:00,49.0,28.0,30.43,SSW,194,0.0,0.0,45,0.12,,,0.12,weatherlink.com 1.10,2013-03-09 15:01:00,
2013-03-09 10:16:00,50.5,27.0,30.44,ENE,74,1.0,1.0,40,0.12,,,0.12,weatherlink.com 1.10,2013-03-09 15:16:00,
2013-03-09 10:31:00,51.7,27.0,30.43,SSE,150,0.0,3.0,39,0.12,,,0.12,weatherlink.com 1.10,2013-03-09 15:31:00,
2013-03-09 10:46:00,53.4,28.0,30.42,South,172,0.0,5.0,38,0.11,,,0.12,weatherlink.com 1.10,2013-03-09 15:46:00,
2013-03-09 11:01:00,54.4,26.0,30.42,SSE,159,0.0,3.0,34,0.00,,,0.12,weatherlink.com 1.10,2013-03-09 16:01:00,
2013-03-09 11:16:00,56.6,28.0,30.42,WNW,300,0.0,3.0,34,0.00,,,0.12,weatherlink.com 1.10,2013-03-09 16:16:00,
2013-03-09 11:31:00,57.7,30.0,30.43,WSW,252,0.0,5.0,35,0.00,,,0.12,weatherlink.com 1.10,2013-03-09 16:31:00,
2013-03-09 11:46:00,58.5,27.0,30.42,NNW,335,0.0,1.0,30,0.00,,,0.12,weatherlink.com 1.10,2013-03-09 16:46:00,
2013-03-09 12:01:00,59.6,28.0,30.42,WNW,290,0.0,3.0,30,0.00,,,0.12,weatherlink.com 1.10,2013-03-09 17:01:00,
2013-03-09 12:16:00,59.7,30.0,30.42,WSW,238,2.0,4.0,32,0.00,,,0.12,weatherlink.com 1.10,2013-03-09 17:16:00,
2013-03-09 12:31:00,59.5,30.0,30.41,SSW,212,0.0,2.0,33,0.00,,,0.12,weatherlink.com 1.10,2013-03-09 17:31:00,
2013-03-09 12:46:00,59.7,30.0,30.41,West,267,0.0,3.0,32,0.00,,,0.12,weatherlink.com 1.10,2013-03-09 17:46:00,
2013-03-09 13:01:00,59.4,29.0,30.40,SW,232,0.0,3.0,32,0.00,,,0.12,weatherlink.com 1.10,2013-03-09 18:01:00,
2013-03-09 13:16:00,59.4,29.0,30.39,SSW,192,0.0,1.0,32,0.00,,,0.12,weatherlink.com 1.10,2013-03-09 18:16:00,
2013-03-09 13:31:00,59.7,32.0,30.38,West,260,0.0,1.0,35,0.00,,,0.12,weatherlink.com 1.10,2013-03-09 18:31:00,
2013-03-09 13:46:00,59.5,29.0,30.37,WSW,251,0.0,3.0,32,0.00,,,0.12,weatherlink.com 1.10,2013-03-09 18:46:00,
2013-03-09 14:01:00,59.4,29.0,30.36,WSW,250,0.0,3.0,32,0.00,,,0.12,weatherlink.com 1.10,2013-03-09 19:01:00,
2013-03-09 14:16:00,60.2,30.0,30.35,WNW,290,0.0,1.0,32,0.00,,,0.12,weatherlink.com 1.10,2013-03-09 19:16:00,
2013-03-09 14:31:00,60.1,29.0,30.35,West,278,0.0,0.0,31,0.00,,,0.12,weatherlink.com 1.10,2013-03-09 19:31:00,
2013-03-09 14:46:00,59.1,30.0,30.34,SW,217,0.0,1.0,33,0.00,,,0.12,weatherlink.com 1.10,2013-03-09 19:46:00,
2013-03-09 15:01:00,59.0,30.0,30.35,West,264,0.0,0.0,34,0.00,,,0.12,weatherlink.com 1.10,2013-03-09 20:01:00,
2013-03-09 15:17:00,58.4,32.0,30.34,West,259,0.0,2.0,37,0.00,,,0.12,weatherlink.com 1.10,2013-03-09 20:17:00,
2013-03-09 15:31:00,58.1,32.0,30.35,West,264,0.0,0.0,38,0.00,,,0.12,weatherlink.com 1.10,2013-03-09 20:31:00,
2013-03-09 15:46:00,57.8,32.0,30.35,SW,214,0.0,1.0,38,0.00,,,0.12,weatherlink.com 1.10,2013-03-09 20:46:00,
2013-03-09 16:01:00,58.2,32.0,30.35,SW,224,0.0,1.0,37,0.00,,,0.12,weatherlink.com 1.10,2013-03-09 21:01:00,
2013-03-09 16:16:00,57.3,32.0,30.34,WSW,246,0.0,1.0,38,0.00,,,0.12,weatherlink.com 1.10,2013-03-09 21:16:00,
2013-03-09 16:31:00,56.4,32.0,30.34,SW,214,0.0,0.0,39,0.00,,,0.12,weatherlink.com 1.10,2013-03-09 21:31:00,
2013-03-09 16:46:00,55.7,33.0,30.35,West,280,0.0,0.0,42,0.00,,,0.12,weatherlink.com 1.10,2013-03-09 21:46:00,
2013-03-09 17:01:00,54.9,30.0,30.35,WSW,242,0.0,2.0,38,0.00,,,0.12,weatherlink.com 1.10,2013-03-09 22:01:00,
2013-03-09 17:16:00,54.5,30.0,30.35,SW,228,0.0,0.0,40,0.00,,,0.12,weatherlink.com 1.10,2013-03-09 22:16:00,
2013-03-09 17:31:00,54.1,31.0,30.36,NW,309,0.0,4.0,41,0.00,,,0.12,weatherlink.com 1.10,2013-03-09 22:31:00,
2013-03-09 17:46:00,54.0,30.0,30.36,WNW,298,0.0,1.0,40,0.00,,,0.12,weatherlink.com 1.10,2013-03-09 22:46:00,
2013-03-09 18:01:00,53.7,30.0,30.36,SSW,201,0.0,1.0,41,0.00,,,0.12,weatherlink.com 1.10,2013-03-09 23:01:00,
2013-03-09 18:16:00,53.4,30.0,30.36,WNW,293,0.0,0.0,41,0.00,,,0.12,weatherlink.com 1.10,2013-03-09 23:16:00,
2013-03-09 18:31:00,52.9,31.0,30.36,WSW,240,0.0,0.0,43,0.00,,,0.12,weatherlink.com 1.10,2013-03-09 23:31:00,
2013-03-09 18:46:00,52.2,30.0,30.36,SE,134,0.0,0.0,43,0.00,,,0.12,weatherlink.com 1.10,2013-03-09 23:46:00,
2013-03-09 19:01:00,51.7,30.0,30.36,ENE,60,0.0,0.0,44,0.00,,,0.12,weatherlink.com 1.10,2013-03-10 00:01:00,
2013-03-09 19:16:00,51.0,31.0,30.36,SE,141,0.0,0.0,46,0.00,,,0.12,weatherlink.com 1.10,2013-03-10 00:16:00,
2013-03-09 19:31:00,50.8,31.0,30.37,SE,142,0.0,0.0,47,0.00,,,0.12,weatherlink.com 1.10,2013-03-10 00:31:00,
2013-03-09 19:46:00,50.7,30.0,30.36,ESE,114,0.0,0.0,45,0.00,,,0.12,weatherlink.com 1.10,2013-03-10 00:46:00,
2013-03-09 20:01:00,50.8,30.0,30.36,ESE,114,0.0,0.0,45,0.00,,,0.12,weatherlink.com 1.10,2013-03-10 01:01:00,
2013-03-09 20:16:00,50.1,30.0,30.36,ESE,117,0.0,0.0,47,0.00,,,0.12,weatherlink.com 1.10,2013-03-10 01:16:00,
2013-03-09 20:31:00,50.0,30.0,30.36,West,270,0.0,0.0,47,0.00,,,0.12,weatherlink.com 1.10,2013-03-10 01:31:00,
2013-03-09 20:46:00,49.8,31.0,30.36,NE,42,0.0,0.0,48,0.00,,,0.12,weatherlink.com 1.10,2013-03-10 01:46:00,
2013-03-09 21:01:00,49.7,31.0,30.36,ENE,63,0.0,0.0,48,0.00,,,0.12,weatherlink.com 1.10,2013-03-10 02:01:00,
2013-03-09 21:31:00,49.7,31.0,30.36,ESE,115,0.0,0.0,48,0.00,,,0.12,weatherlink.com 1.10,2013-03-10 02:31:00,
2013-03-09 21:46:00,49.2,31.0,30.36,ESE,113,0.0,0.0,49,0.00,,,0.12,weatherlink.com 1.10,2013-03-10 02:46:00,
2013-03-09 22:02:00,49.5,30.0,30.36,ESE,111,0.0,0.0,48,0.00,,,0.12,weatherlink.com 1.10,2013-03-10 03:02:00,
2013-03-09 22:16:00,49.5,30.0,30.36,SE,138,0.0,0.0,48,0.00,,,0.12,weatherlink.com 1.10,2013-03-10 03:16:00,
2013-03-09 22:31:00,49.1,30.0,30.36,ESE,105,0.0,0.0,49,0.00,,,0.12,weatherlink.com 1.10,2013-03-10 03:31:00,
2013-03-09 22:46:00,48.9,30.0,30.36,East,101,0.0,0.0,49,0.00,,,0.12,weatherlink.com 1.10,2013-03-10 03:46:00,
2013-03-09 23:17:00,47.7,31.0,30.35,SE,136,0.0,0.0,53,0.00,,,0.12,weatherlink.com 1.10,2013-03-10 04:17:00,
2013-03-09 23:32:00,47.5,31.0,30.34,SE,132,0.0,2.0,54,0.00,,,0.12,weatherlink.com 1.10,2013-03-10 04:32:00,
2013-03-09 23:47:00,47.5,31.0,30.34,SE,134,0.0,0.0,53,0.00,,,0.12,weatherlink.com 1.10,2013-03-10 04:47:00,